Time;durP1;ratioP1;P1;durP2;ratioP2;P2;SDS_P1;SDS_P2;PMS_P1;PMS_P2;Temp;Humidity;BMP_temperature;BMP_pressure;BME280_temperature;BME280_humidity;BME280_pressure;Samples;Min_cycle;Max_cycle;Signal;HPM_P1;HPM_P2
2023/04/16 03:02:36;;;;;;;0.22;0.22;;;16.10;51.90;;;;;;4914379;23;45905;-59
2023/04/16 03:05:03;;;;;;;0.20;0.20;;;16.10;52.00;;;;;;4905551;28;46869;-64
2023/04/16 03:07:29;;;;;;;0.20;0.20;;;16.10;52.00;;;;;;4905570;28;45309;-59
2023/04/16 03:09:54;;;;;;;0.45;0.40;;;16.10;51.90;;;;;;4916442;28;45189;-58
2023/04/16 03:12:20;;;;;;;0.40;0.22;;;16.10;51.90;;;;;;4898435;28;45393;-59
2023/04/16 03:14:45;;;;;;;0.52;0.40;;;16.10;52.00;;;;;;4905383;28;46239;-58
2023/04/16 03:17:11;;;;;;;0.20;0.20;;;16.10;52.00;;;;;;4897189;28;45255;-58
2023/04/16 03:19:36;;;;;;;0.38;0.28;;;16.10;51.90;;;;;;4911498;28;45352;-59
2023/04/16 03:22:02;;;;;;;0.20;0.20;;;16.10;51.90;;;;;;4930611;23;46128;-59
2023/04/16 03:24:28;;;;;;;0.20;0.20;;;16.10;51.90;;;;;;4934605;28;45366;-59
2023/04/16 03:26:54;;;;;;;0.30;0.30;;;16.10;51.90;;;;;;4907441;28;45380;-59
2023/04/16 03:29:19;;;;;;;0.38;0.28;;;16.10;51.90;;;;;;4932700;28;45514;-59
2023/04/16 03:31:45;;;;;;;0.20;0.20;;;16.10;51.90;;;;;;4924944;28;46251;-59
2023/04/16 03:34:10;;;;;;;0.10;0.10;;;16.10;52.00;;;;;;4934399;28;45855;-58
2023/04/16 03:36:36;;;;;;;0.20;0.20;;;16.10;51.90;;;;;;4925422;28;45239;-60
2023/04/16 03:39:01;;;;;;;0.17;0.17;;;16.10;51.90;;;;;;4932060;28;45249;-59
2023/04/16 03:41:27;;;;;;;0.20;0.20;;;16.10;51.90;;;;;;4923362;28;45168;-58
2023/04/16 03:43:52;;;;;;;0.20;0.20;;;16.10;51.90;;;;;;4934676;28;45996;-60
2023/04/16 03:46:18;;;;;;;0.20;0.20;;;16.10;51.90;;;;;;4934342;23;45239;-59
2023/04/16 03:48:44;;;;;;;0.20;0.20;;;16.10;52.00;;;;;;4907586;28;45156;-59
2023/04/16 03:51:09;;;;;;;0.20;0.20;;;16.10;51.90;;;;;;4928465;28;45418;-60
2023/04/16 03:53:35;;;;;;;0.20;0.10;;;16.10;51.90;;;;;;4928379;28;48294;-59
2023/04/16 03:56:00;;;;;;;0.38;0.20;;;16.10;51.90;;;;;;4911138;28;45246;-60
2023/04/16 03:58:26;;;;;;;0.30;0.30;;;16.10;51.90;;;;;;4925741;28;45344;-60
2023/04/16 04:00:53;;;;;;;0.20;0.20;;;16.10;51.90;;;;;;4917309;28;45577;-60
2023/04/16 04:03:19;;;;;;;0.15;0.15;;;16.10;51.90;;;;;;4927680;28;45268;-62
2023/04/16 04:05:44;;;;;;;0.40;0.40;;;16.10;51.90;;;;;;4926789;28;44698;-60
2023/04/16 04:08:10;;;;;;;0.20;0.20;;;16.10;51.90;;;;;;4914220;28;45435;-58
2023/04/16 04:10:36;;;;;;;0.25;0.25;;;16.10;52.00;;;;;;4934862;28;45177;-59
2023/04/16 04:13:02;;;;;;;0.25;0.20;;;16.10;51.90;;;;;;4928310;28;50632;-59
2023/04/16 04:15:28;;;;;;;0.30;0.30;;;16.10;51.90;;;;;;4919629;28;45283;-59
2023/04/16 04:17:53;;;;;;;0.30;0.30;;;16.10;51.90;;;;;;4913109;28;45354;-59
2023/04/16 04:20:19;;;;;;;0.20;0.20;;;16.10;51.90;;;;;;4905689;28;45604;-60
2023/04/16 04:22:45;;;;;;;0.25;0.22;;;16.10;52.00;;;;;;4926066;28;45946;-59
2023/04/16 04:25:10;;;;;;;0.60;0.30;;;16.10;51.90;;;;;;4922026;28;45285;-61
2023/04/16 04:27:36;;;;;;;0.20;0.20;;;16.10;51.90;;;;;;4926219;28;45396;-59
2023/04/16 04:30:05;;;;;;;0.22;0.22;;;16.10;52.00;;;;;;4926921;28;45443;-60
2023/04/16 04:32:30;;;;;;;0.52;0.20;;;16.10;52.00;;;;;;4899050;28;47040;-60
2023/04/16 04:34:56;;;;;;;0.15;0.15;;;16.10;52.00;;;;;;4925487;28;45237;-56
2023/04/16 04:37:22;;;;;;;0.30;0.30;;;16.10;51.90;;;;;;4923298;28;45123;-60
2023/04/16 04:39:47;;;;;;;0.52;0.20;;;16.10;51.90;;;;;;4927858;28;44696;-58
2023/04/16 04:42:15;;;;;;;0.32;0.32;;;16.10;51.90;;;;;;4919278;28;46805;-57
2023/04/16 04:44:41;;;;;;;0.20;0.20;;;16.10;51.90;;;;;;4925887;28;45365;-57
2023/04/16 04:47:06;;;;;;;0.28;0.28;;;16.10;51.90;;;;;;4912694;28;44716;-59
2023/04/16 04:49:32;;;;;;;0.30;0.20;;;16.10;52.00;;;;;;4924135;28;45228;-59
2023/04/16 04:51:57;;;;;;;0.50;0.20;;;16.10;51.90;;;;;;4920812;28;46050;-60
2023/04/16 04:54:23;;;;;;;0.30;0.20;;;16.10;51.90;;;;;;4925477;28;45381;-58
2023/04/16 04:56:51;;;;;;;0.30;0.30;;;16.10;51.90;;;;;;4922096;28;44991;-62
2023/04/16 04:59:16;;;;;;;0.20;0.20;;;16.10;51.90;;;;;;4927230;28;45272;-63
2023/04/16 05:01:42;;;;;;;0.25;0.20;;;16.10;51.90;;;;;;4911374;28;45241;-59
2023/04/16 05:04:07;;;;;;;0.20;0.20;;;16.10;51.90;;;;;;4925650;28;45292;-59
2023/04/16 05:06:33;;;;;;;0.20;0.20;;;16.10;52.00;;;;;;4917055;28;45228;-59
2023/04/16 05:08:58;;;;;;;0.20;0.20;;;16.00;51.90;;;;;;4928484;28;45110;-58
2023/04/16 05:11:24;;;;;;;0.20;0.20;;;16.10;52.00;;;;;;4921092;28;46186;-59
2023/04/16 05:13:50;;;;;;;0.20;0.20;;;16.10;52.00;;;;;;4926357;28;45134;-58
2023/04/16 05:16:15;;;;;;;0.52;0.40;;;16.10;52.00;;;;;;4916792;28;45335;-59
2023/04/16 05:18:41;;;;;;;0.30;0.30;;;16.00;51.90;;;;;;4925993;28;44969;-59
2023/04/16 05:21:06;;;;;;;0.25;0.25;;;16.10;52.00;;;;;;4924310;28;46335;-59
2023/04/16 05:23:32;;;;;;;0.52;0.28;;;16.10;52.00;;;;;;4924277;28;45657;-60
2023/04/16 05:25:57;;;;;;;0.52;0.40;;;16.10;52.00;;;;;;4917122;28;45808;-58
2023/04/16 05:28:23;;;;;;;0.30;0.20;;;16.10;52.00;;;;;;4924314;28;45210;-59
2023/04/16 05:30:48;;;;;;;0.30;0.20;;;16.10;52.00;;;;;;4918524;28;45923;-59
2023/04/16 05:33:14;;;;;;;0.35;0.28;;;16.10;52.00;;;;;;4922911;28;45236;-57
2023/04/16 05:35:39;;;;;;;0.40;0.20;;;16.00;52.00;;;;;;4936018;23;45216;-59
2023/04/16 05:38:05;;;;;;;0.20;0.20;;;16.00;52.00;;;;;;4910386;28;45623;-59
2023/04/16 05:40:31;;;;;;;0.30;0.30;;;16.00;52.10;;;;;;4923333;28;45784;-62
2023/04/16 05:42:56;;;;;;;0.30;0.30;;;16.00;52.10;;;;;;4928575;28;45279;-59
2023/04/16 05:45:22;;;;;;;0.30;0.22;;;16.00;52.10;;;;;;4920313;28;45483;-59
2023/04/16 05:47:47;;;;;;;0.30;0.30;;;16.00;52.00;;;;;;4924538;28;45339;-58
2023/04/16 05:50:13;;;;;;;0.20;0.20;;;16.00;52.00;;;;;;4918212;28;46753;-62
2023/04/16 05:52:38;;;;;;;0.10;0.10;;;16.00;52.00;;;;;;4922060;28;45240;-58
2023/04/16 05:55:05;;;;;;;0.28;0.20;;;16.00;51.90;;;;;;4940116;28;45309;-60
2023/04/16 05:57:30;;;;;;;0.30;0.30;;;16.00;52.00;;;;;;4921581;28;45534;-60
2023/04/16 05:59:56;;;;;;;0.40;0.38;;;16.00;52.00;;;;;;4923959;28;45948;-58
2023/04/16 06:02:21;;;;;;;0.20;0.20;;;16.00;52.00;;;;;;4918735;28;44762;-58
2023/04/16 06:04:48;;;;;;;0.20;0.20;;;16.00;52.10;;;;;;4925313;28;45027;-60
2023/04/16 06:07:14;;;;;;;0.45;0.30;;;16.00;52.00;;;;;;4925453;28;45827;-58
2023/04/16 06:09:40;;;;;;;0.20;0.20;;;16.00;52.00;;;;;;4923381;28;45205;-60
2023/04/16 06:12:06;;;;;;;0.20;0.20;;;16.00;52.00;;;;;;4921577;28;45307;-59
2023/04/16 06:14:31;;;;;;;0.30;0.30;;;16.00;52.00;;;;;;4928427;28;45276;-61
2023/04/16 06:16:57;;;;;;;0.20;0.20;;;16.00;52.00;;;;;;4916092;28;45453;-60
2023/04/16 06:19:23;;;;;;;0.30;0.30;;;16.00;52.00;;;;;;4931661;28;47243;-59
2023/04/16 06:21:48;;;;;;;0.30;0.30;;;16.00;52.00;;;;;;4920156;28;45029;-60
2023/04/16 06:24:14;;;;;;;0.55;0.30;;;16.00;52.00;;;;;;4930400;28;45257;-59
2023/04/16 06:26:39;;;;;;;0.20;0.20;;;16.00;52.00;;;;;;4920166;28;45588;-60
2023/04/16 06:29:05;;;;;;;0.20;0.20;;;16.00;52.00;;;;;;4925856;28;46163;-59
2023/04/16 06:31:31;;;;;;;0.20;0.20;;;16.00;52.00;;;;;;4916118;28;45598;-58
2023/04/16 06:33:56;;;;;;;0.10;0.10;;;16.00;52.10;;;;;;4925480;28;44739;-60
2023/04/16 06:36:22;;;;;;;0.40;0.30;;;16.00;52.10;;;;;;4927442;23;45648;-60
2023/04/16 06:38:47;;;;;;;0.20;0.20;;;16.00;52.10;;;;;;4921433;28;45244;-60
2023/04/16 06:41:13;;;;;;;0.30;0.30;;;16.00;52.10;;;;;;4902443;28;45202;-60
2023/04/16 06:43:39;;;;;;;0.28;0.28;;;16.00;52.10;;;;;;4907756;28;45214;-60
2023/04/16 06:46:04;;;;;;;0.30;0.30;;;16.00;52.10;;;;;;4911131;28;45381;-60
2023/04/16 06:48:30;;;;;;;0.20;0.20;;;16.00;52.10;;;;;;4906238;28;46011;-60
2023/04/16 06:50:55;;;;;;;0.20;0.20;;;16.00;52.10;;;;;;4905754;28;45398;-59
2023/04/16 06:53:22;;;;;;;0.20;0.20;;;16.00;52.00;;;;;;4893823;28;45263;-58
2023/04/16 06:55:47;;;;;;;0.30;0.30;;;16.00;52.00;;;;;;4914409;28;44793;-60
2023/04/16 06:58:13;;;;;;;0.30;0.30;;;16.00;52.10;;;;;;4925760;28;46058;-59
2023/04/16 07:00:38;;;;;;;0.20;0.20;;;16.00;52.10;;;;;;4900572;28;46235;-60
2023/04/16 07:03:04;;;;;;;0.20;0.20;;;16.00;52.00;;;;;;4908774;28;45611;-60
2023/04/16 07:05:30;;;;;;;0.20;0.20;;;16.00;52.10;;;;;;4904536;28;45258;-59
2023/04/16 07:07:56;;;;;;;0.22;0.22;;;16.00;52.70;;;;;;4908800;28;45240;-59
2023/04/16 07:10:22;;;;;;;0.20;0.20;;;16.00;52.00;;;;;;4905787;28;45302;-58
2023/04/16 07:12:47;;;;;;;0.20;0.20;;;16.00;52.00;;;;;;4927439;28;45418;-57
2023/04/16 07:15:13;;;;;;;0.30;0.30;;;16.00;52.10;;;;;;4903655;28;44808;-60
2023/04/16 07:17:39;;;;;;;0.30;0.30;;;15.90;52.00;;;;;;4921199;28;45175;-59
2023/04/16 07:20:06;;;;;;;0.17;0.17;;;16.00;52.10;;;;;;4911893;28;45063;-60
2023/04/16 07:22:31;;;;;;;0.20;0.20;;;16.00;52.00;;;;;;4895561;28;45664;-60
2023/04/16 07:24:57;;;;;;;0.20;0.20;;;16.00;52.00;;;;;;4911761;28;45277;-59
2023/04/16 07:27:22;;;;;;;0.30;0.30;;;16.00;52.00;;;;;;4907315;28;45426;-60
2023/04/16 07:29:49;;;;;;;0.40;0.40;;;16.00;51.90;;;;;;4923049;28;45292;-60
2023/04/16 07:32:14;;;;;;;0.43;0.30;;;16.00;51.90;;;;;;4899564;28;46135;-57
2023/04/16 07:34:40;;;;;;;0.43;0.32;;;16.00;51.90;;;;;;4910221;28;45319;-58
2023/04/16 07:37:05;;;;;;;0.38;0.28;;;16.00;51.90;;;;;;4903934;28;46139;-59
2023/04/16 07:39:31;;;;;;;0.52;0.20;;;16.00;51.90;;;;;;4906436;28;45433;-58
2023/04/16 07:41:56;;;;;;;0.35;0.30;;;16.00;51.90;;;;;;4907320;28;45466;-57
2023/04/16 07:44:22;;;;;;;4.13;0.65;;;16.00;51.90;;;;;;4909819;28;44725;-60
2023/04/16 07:46:47;;;;;;;0.45;0.30;;;16.00;51.90;;;;;;4899303;28;53890;-61
2023/04/16 07:49:13;;;;;;;0.20;0.20;;;16.00;51.90;;;;;;4913065;28;45729;-60
2023/04/16 07:51:39;;;;;;;0.30;0.30;;;16.00;51.90;;;;;;4904357;28;46423;-60
2023/04/16 07:54:04;;;;;;;0.30;0.30;;;16.00;51.90;;;;;;4905850;28;45354;-59
2023/04/16 07:56:30;;;;;;;0.30;0.20;;;16.00;51.90;;;;;;4903782;28;45263;-60
2023/04/16 07:58:56;;;;;;;0.47;0.22;;;16.00;51.90;;;;;;4906021;28;45584;-59
2023/04/16 08:01:21;;;;;;;0.40;0.40;;;16.00;51.90;;;;;;4916005;23;45797;-60
2023/04/16 08:03:47;;;;;;;0.22;0.20;;;16.00;51.90;;;;;;4906594;28;45305;-60
2023/04/16 08:06:12;;;;;;;0.13;0.13;;;16.00;51.90;;;;;;4900188;28;46114;-61
2023/04/16 08:08:38;;;;;;;0.20;0.20;;;16.00;51.90;;;;;;4903785;28;45839;-59
2023/04/16 08:11:03;;;;;;;0.25;0.25;;;16.00;52.00;;;;;;4923062;23;46221;-58
2023/04/16 08:13:29;;;;;;;0.20;0.20;;;16.00;51.90;;;;;;4898105;28;45178;-59
2023/04/16 08:15:54;;;;;;;0.30;0.30;;;16.00;52.00;;;;;;4918570;28;45435;-60
2023/04/16 08:18:20;;;;;;;0.43;0.30;;;16.00;52.00;;;;;;4923318;28;45169;-59
2023/04/16 08:20:45;;;;;;;0.30;0.20;;;16.00;51.90;;;;;;4923593;23;44769;-61
2023/04/16 08:23:11;;;;;;;0.20;0.20;;;16.00;51.90;;;;;;4894969;28;45254;-60
2023/04/16 08:25:36;;;;;;;0.43;0.30;;;16.00;51.90;;;;;;4888208;28;45338;-59
2023/04/16 08:28:02;;;;;;;0.30;0.30;;;16.00;51.90;;;;;;4895749;28;45931;-60
2023/04/16 08:30:28;;;;;;;0.13;0.13;;;16.00;51.90;;;;;;4887957;28;45402;-60
2023/04/16 08:32:53;;;;;;;0.20;0.20;;;16.00;52.00;;;;;;4891274;28;45247;-59
2023/04/16 08:35:19;;;;;;;0.30;0.30;;;16.00;52.00;;;;;;4905914;23;46316;-60
2023/04/16 08:37:45;;;;;;;0.10;0.10;;;16.00;51.90;;;;;;4894721;28;45378;-60
2023/04/16 08:40:10;;;;;;;0.30;0.30;;;16.00;51.90;;;;;;4906949;28;45420;-60
2023/04/16 08:42:48;;;;;;;0.75;0.30;;;16.00;51.90;;;;;;4912744;28;45462;-59
2023/04/16 08:45:15;;;;;;;0.40;0.30;;;16.00;51.90;;;;;;4890573;28;46268;-62
2023/04/16 08:47:41;;;;;;;0.20;0.20;;;16.00;51.90;;;;;;4899475;28;45820;-60
2023/04/16 08:50:08;;;;;;;0.25;0.20;;;16.00;51.90;;;;;;4910370;28;45123;-61
2023/04/16 08:52:33;;;;;;;0.30;0.22;;;16.00;51.80;;;;;;4917768;28;45489;-59
2023/04/16 08:55:15;;;;;;;0.20;0.20;;;16.00;51.80;;;;;;4919742;28;45971;-60
2023/04/16 08:57:58;;;;;;;0.20;0.20;;;16.10;51.90;;;;;;4911842;28;45265;-60
2023/04/16 09:00:24;;;;;;;0.20;0.20;;;16.10;51.80;;;;;;4906936;28;45774;-59
2023/04/16 09:02:50;;;;;;;0.30;0.30;;;16.10;51.90;;;;;;4892407;28;45537;-60
2023/04/16 09:05:16;;;;;;;0.20;0.20;;;16.00;51.80;;;;;;4907383;28;45495;-60
2023/04/16 09:07:45;;;;;;;0.30;0.30;;;16.00;51.80;;;;;;4907425;28;45306;-60
2023/04/16 09:10:11;;;;;;;0.20;0.20;;;16.10;51.90;;;;;;4905281;28;45266;-60
2023/04/16 09:12:36;;;;;;;0.20;0.20;;;16.00;51.80;;;;;;4916344;28;45696;-59
2023/04/16 09:15:03;;;;;;;0.10;0.10;;;16.10;51.90;;;;;;4916365;28;45986;-60
2023/04/16 09:17:30;;;;;;;0.30;0.30;;;16.00;51.80;;;;;;4884439;28;45928;-58
2023/04/16 09:19:55;;;;;;;0.30;0.30;;;16.00;51.80;;;;;;4906197;28;45083;-56
2023/04/16 09:22:21;;;;;;;0.20;0.20;;;16.10;51.90;;;;;;4909199;28;45215;-60
2023/04/16 09:24:46;;;;;;;0.20;0.20;;;16.10;51.90;;;;;;4905016;28;46278;-60
2023/04/16 09:27:12;;;;;;;0.35;0.35;;;16.10;51.90;;;;;;4901665;28;45215;-58
2023/04/16 09:29:39;;;;;;;0.20;0.20;;;16.10;51.90;;;;;;4910208;28;45249;-59
2023/04/16 09:32:06;;;;;;;0.20;0.20;;;16.10;51.90;;;;;;4903758;28;45681;-60
2023/04/16 09:34:52;;;;;;;0.30;0.30;;;16.10;51.90;;;;;;4909568;28;46926;-59
2023/04/16 09:37:17;;;;;;;0.30;0.22;;;16.10;51.90;;;;;;4915070;28;45312;-59
2023/04/16 09:39:44;;;;;;;0.25;0.25;;;16.10;51.90;;;;;;4905363;28;45935;-59
2023/04/16 09:42:10;;;;;;;0.20;0.20;;;16.10;51.80;;;;;;4889323;28;45233;-60
2023/04/16 09:44:38;;;;;;;0.20;0.20;;;16.10;51.80;;;;;;4911255;28;45899;-59
2023/04/16 09:47:07;;;;;;;0.20;0.20;;;16.10;51.70;;;;;;4898627;28;45534;-60
2023/04/16 09:49:42;;;;;;;0.20;0.20;;;16.10;51.70;;;;;;4910471;28;46920;-62
2023/04/16 09:52:14;;;;;;;0.25;0.25;;;16.10;51.70;;;;;;4906320;28;46252;-60
2023/04/16 09:54:45;;;;;;;0.20;0.20;;;16.10;51.70;;;;;;4915479;28;47262;-59
2023/04/16 09:57:11;;;;;;;0.10;0.10;;;16.10;51.70;;;;;;4904882;28;45353;-61
2023/04/16 09:59:36;;;;;;;0.30;0.20;;;16.10;51.80;;;;;;4911248;28;45238;-59
2023/04/16 10:02:02;;;;;;;0.28;0.28;;;16.10;51.80;;;;;;4903130;28;45594;-58
2023/04/16 10:04:27;;;;;;;0.20;0.20;;;16.10;51.80;;;;;;4917232;28;45531;-60
2023/04/16 10:07:03;;;;;;;0.30;0.30;;;16.20;51.80;;;;;;4906154;28;44662;-60
2023/04/16 10:09:36;;;;;;;0.20;0.20;;;16.20;51.80;;;;;;4926989;28;45455;-59
2023/04/16 10:12:01;;;;;;;0.20;0.17;;;16.20;51.70;;;;;;4909251;28;45229;-59
2023/04/16 10:14:27;;;;;;;0.20;0.20;;;16.20;51.80;;;;;;4915274;28;45351;-56
2023/04/16 10:16:54;;;;;;;0.30;0.30;;;16.20;51.80;;;;;;4899566;28;45200;-59
2023/04/16 10:19:20;;;;;;;0.13;0.13;;;16.20;51.70;;;;;;4927421;28;45057;-60
2023/04/16 10:21:46;;;;;;;0.20;0.20;;;16.20;51.70;;;;;;4909205;28;45387;-59
2023/04/16 10:24:12;;;;;;;0.32;0.30;;;16.20;51.70;;;;;;4925569;28;46854;-60
2023/04/16 10:26:38;;;;;;;0.20;0.20;;;16.20;51.70;;;;;;4895488;28;46137;-58
2023/04/16 10:29:03;;;;;;;0.20;0.20;;;16.20;51.70;;;;;;4911982;28;45626;-60
2023/04/16 10:31:29;;;;;;;0.90;0.20;;;16.20;51.70;;;;;;4899978;28;45466;-59
2023/04/16 10:33:55;;;;;;;0.30;0.30;;;16.30;51.70;;;;;;4911063;28;45317;-60
2023/04/16 10:36:22;;;;;;;0.30;0.30;;;16.20;51.60;;;;;;4907927;28;45548;-60
2023/04/16 10:38:51;;;;;;;0.32;0.30;;;16.30;51.70;;;;;;4914583;28;45301;-59
2023/04/16 10:41:19;;;;;;;0.20;0.20;;;16.20;51.70;;;;;;4911817;28;45564;-61
2023/04/16 10:43:49;;;;;;;0.10;0.10;;;16.30;51.70;;;;;;4916151;28;46004;-60
2023/04/16 10:46:20;;;;;;;0.45;0.30;;;16.20;51.60;;;;;;4906453;28;45527;-61
2023/04/16 10:48:46;;;;;;;0.20;0.20;;;16.30;51.70;;;;;;4917851;28;45733;-60
2023/04/16 10:51:23;;;;;;;0.38;0.30;;;16.30;51.60;;;;;;4923365;28;45380;-61
2023/04/16 10:53:49;;;;;;;0.20;0.20;;;16.30;51.60;;;;;;4914006;28;47170;-59
2023/04/16 10:56:16;;;;;;;0.40;0.20;;;16.30;51.60;;;;;;4911627;28;45240;-61
2023/04/16 10:58:42;;;;;;;0.30;0.30;;;16.30;51.60;;;;;;4901421;28;44663;-61
2023/04/16 11:01:15;;;;;;;0.30;0.20;;;16.30;51.60;;;;;;4905257;28;45399;-61
2023/04/16 11:03:47;;;;;;;0.20;0.20;;;16.30;51.60;;;;;;4913766;28;46254;-61
2023/04/16 11:06:22;;;;;;;0.20;0.20;;;16.30;51.60;;;;;;4911756;28;44921;-60
2023/04/16 11:08:49;;;;;;;0.20;0.20;;;16.30;51.60;;;;;;4915002;28;46134;-60
2023/04/16 11:11:15;;;;;;;0.10;0.10;;;16.30;51.60;;;;;;4893452;28;45444;-60
2023/04/16 11:13:42;;;;;;;0.20;0.20;;;16.30;51.70;;;;;;4916263;28;46183;-58
2023/04/16 11:16:08;;;;;;;0.30;0.30;;;16.30;51.70;;;;;;4909750;28;45583;-59
2023/04/16 11:18:33;;;;;;;0.17;0.15;;;16.30;51.70;;;;;;4894841;28;45380;-60
2023/04/16 11:20:59;;;;;;;0.22;0.20;;;16.30;51.60;;;;;;4903813;28;44826;-60
2023/04/16 11:23:24;;;;;;;0.10;0.10;;;16.30;51.70;;;;;;4900408;28;45456;-60
2023/04/16 11:25:55;;;;;;;0.10;0.10;;;16.30;51.60;;;;;;4911314;28;44746;-59
2023/04/16 11:28:33;;;;;;;0.38;0.20;;;16.30;51.60;;;;;;4917939;28;45264;-60
2023/04/16 11:31:00;;;;;;;0.40;0.28;;;16.30;51.60;;;;;;4904146;28;45353;-60
2023/04/16 11:33:25;;;;;;;0.25;0.20;;;16.30;51.60;;;;;;4911935;28;46248;-58
2023/04/16 11:36:00;;;;;;;0.20;0.20;;;16.30;51.60;;;;;;4910347;28;44706;-59
2023/04/16 11:38:33;;;;;;;0.20;0.20;;;16.30;51.60;;;;;;4916742;28;44689;-59
2023/04/16 11:40:59;;;;;;;0.20;0.20;;;16.30;51.60;;;;;;4922691;28;45735;-60
2023/04/16 11:43:25;;;;;;;0.20;0.20;;;16.30;51.60;;;;;;4915856;28;46384;-60
2023/04/16 11:46:04;;;;;;;0.10;0.10;;;16.30;51.60;;;;;;4907453;28;45287;-58
2023/04/16 11:48:49;;;;;;;0.20;0.20;;;16.30;51.60;;;;;;4913747;28;45318;-59
2023/04/16 11:51:15;;;;;;;0.20;0.20;;;16.30;51.60;;;;;;4906057;28;46120;-58
2023/04/16 11:53:45;;;;;;;0.10;0.10;;;16.30;51.60;;;;;;4915970;28;45235;-60
2023/04/16 11:56:11;;;;;;;0.10;0.10;;;16.30;51.70;;;;;;4909524;28;45586;-59
2023/04/16 11:58:36;;;;;;;0.20;0.20;;;16.30;51.60;;;;;;4915797;28;45370;-59
2023/04/16 12:01:02;;;;;;;0.10;0.10;;;16.30;51.60;;;;;;4917867;28;45272;-60
2023/04/16 12:03:44;;;;;;;0.20;0.20;;;16.30;51.60;;;;;;4912670;28;46833;-59
2023/04/16 12:06:10;;;;;;;0.10;0.10;;;16.30;51.60;;;;;;4904148;28;45781;-59
2023/04/16 12:08:35;;;;;;;0.40;0.30;;;16.30;51.60;;;;;;4898944;28;45392;-59
2023/04/16 12:11:01;;;;;;;0.13;0.13;;;16.30;51.60;;;;;;4909909;28;46006;-59
2023/04/16 12:13:26;;;;;;;0.28;0.28;;;16.30;51.60;;;;;;4912432;28;45958;-59
2023/04/16 12:15:55;;;;;;;0.10;0.10;;;16.30;51.60;;;;;;4903747;28;45841;-59
2023/04/16 12:18:25;;;;;;;0.35;0.20;;;16.30;51.60;;;;;;4912203;28;45964;-60
2023/04/16 12:20:51;;;;;;;0.20;0.20;;;16.30;51.70;;;;;;4908334;28;45450;-61
2023/04/16 12:23:27;;;;;;;0.20;0.20;;;16.30;51.60;;;;;;4911191;28;45972;-58
2023/04/16 12:25:53;;;;;;;0.30;0.20;;;16.30;51.60;;;;;;4912673;28;45703;-58
2023/04/16 12:28:32;;;;;;;0.20;0.20;;;16.30;51.70;;;;;;4911396;28;45262;-60
2023/04/16 12:30:58;;;;;;;0.20;0.20;;;16.30;51.60;;;;;;4905306;28;45839;-59
2023/04/16 12:33:23;;;;;;;0.70;0.22;;;16.30;51.60;;;;;;4914012;28;45969;-59
2023/04/16 12:35:49;;;;;;;0.22;0.20;;;16.30;51.60;;;;;;4908148;28;45249;-59
2023/04/16 12:38:15;;;;;;;0.20;0.20;;;16.30;51.70;;;;;;4924588;28;44661;-60
2023/04/16 12:40:41;;;;;;;0.20;0.20;;;16.30;51.60;;;;;;4907455;28;45645;-59
2023/04/16 12:43:08;;;;;;;0.40;0.40;;;16.40;51.60;;;;;;4911965;28;45304;-60
2023/04/16 12:45:33;;;;;;;2.00;0.60;;;16.40;51.80;;;;;;4904419;28;45461;-62
2023/04/16 12:47:59;;;;;;;0.60;0.60;;;16.40;52.20;;;;;;4917744;28;44915;-60
2023/04/16 12:50:25;;;;;;;0.68;0.63;;;16.40;52.50;;;;;;4906229;28;48998;-61
2023/04/16 13:00:36;;;;;;;;;;;16.00;54.30;;;;;;5097037;27;44726;-58
2023/04/16 13:03:01;;;;;;;0.95;0.85;;;15.90;55.50;;;;;;5061552;27;44923;-60
2023/04/16 13:05:30;;;;;;;;;;;15.90;54.60;;;;;;5057483;27;45461;-62
2023/04/16 13:07:55;;;;;;;;;;;15.90;56.20;;;;;;5083747;27;45527;-63
2023/04/16 13:10:22;;;;;;;;;;;15.90;56.00;;;;;;5056027;27;45723;-58
2023/04/16 13:12:47;;;;;;;;;;;15.90;55.90;;;;;;5064260;27;45416;-58
2023/04/16 13:15:13;;;;;;;;;;;16.00;56.00;;;;;;5089135;27;46186;-63
2023/04/16 13:17:39;;;;;;;;;;;16.00;55.80;;;;;;5045809;27;45608;-56
2023/04/16 13:20:05;;;;;;;;;;;16.00;55.70;;;;;;5061052;27;45166;-59
2023/04/16 13:22:33;;;;;;;;;;;16.10;55.70;;;;;;5060892;27;44932;-54
2023/04/16 13:24:58;;;;;;;;;;;16.10;55.90;;;;;;5065662;27;45094;-60
2023/04/16 13:27:24;;;;;;;;;;;16.10;55.80;;;;;;5064701;27;45653;-58
2023/04/16 13:29:49;;;;;;;;;;;16.20;55.90;;;;;;5080776;27;46144;-58
2023/04/16 13:32:15;;;;;;;;;;;16.20;55.90;;;;;;5077561;27;44666;-59
2023/04/16 13:34:41;;;;;;;;;;;16.10;55.70;;;;;;5089083;27;45601;-59
2023/04/16 13:37:06;;;;;;;;;;;16.20;55.60;;;;;;5063233;27;45278;-56
2023/04/16 13:39:32;;;;;;;;;;;16.20;55.60;;;;;;5102631;27;45861;-58
2023/04/16 13:41:57;;;;;;;;;;;16.20;55.50;;;;;;5082835;27;45637;-56
2023/04/16 13:44:23;;;;;;;;;;;16.20;55.40;;;;;;5077974;27;46015;-58
2023/04/16 13:46:48;;;;;;;;;;;16.20;55.40;;;;;;5076102;27;44754;-57
2023/04/16 13:49:14;;;;;;;;;;;16.20;55.30;;;;;;5058489;27;46256;-58
2023/04/16 13:51:41;;;;;;;;;;;16.30;55.40;;;;;;5071414;27;46051;-59
2023/04/16 13:54:08;;;;;;;;;;;16.30;55.30;;;;;;5065597;27;45468;-58
2023/04/16 13:56:34;;;;;;;;;;;16.30;55.30;;;;;;5071490;27;45453;-59
2023/04/16 13:58:59;;;;;;;;;;;16.30;55.20;;;;;;5084811;27;46083;-59
2023/04/16 14:01:25;;;;;;;;;;;16.30;55.20;;;;;;5070224;27;46106;-59
2023/04/16 14:03:50;;;;;;;;;;;16.30;55.20;;;;;;5081870;27;45308;-58
2023/04/16 14:06:17;;;;;;;;;;;16.30;55.10;;;;;;5079758;27;45737;-59
2023/04/16 14:08:42;;;;;;;;;;;16.30;55.10;;;;;;5065251;27;45355;-59
2023/04/16 14:11:08;;;;;;;;;;;16.30;55.10;;;;;;5071666;27;45155;-60
2023/04/16 14:13:33;;;;;;;;;;;16.30;55.00;;;;;;5085064;27;45450;-58
2023/04/16 14:15:59;;;;;;;;;;;16.30;54.90;;;;;;5048127;28;45644;-62
2023/04/16 14:18:24;;;;;;;;;;;16.30;54.90;;;;;;5051876;27;45179;-58
2023/04/16 14:20:50;;;;;;;;;;;16.30;54.90;;;;;;5065075;27;45618;-56
2023/04/16 14:23:15;;;;;;;;;;;16.30;54.80;;;;;;5072427;27;45656;-58
2023/04/16 14:25:41;;;;;;;;;;;16.30;54.80;;;;;;5057217;27;46626;-59
2023/04/16 14:28:07;;;;;;;;;;;16.30;54.80;;;;;;5057793;27;45104;-60
2023/04/16 14:30:33;;;;;;;;;;;16.30;54.80;;;;;;5084491;22;45052;-59
2023/04/16 14:32:58;;;;;;;;;;;16.30;54.80;;;;;;5010509;28;45261;-56
2023/04/16 14:35:24;;;;;;;;;;;16.30;54.70;;;;;;5022720;28;45431;-58
2023/04/16 14:37:49;;;;;;;;;;;16.30;54.70;;;;;;5026726;28;46088;-58
2023/04/16 14:40:15;;;;;;;;;;;16.30;54.70;;;;;;5008542;28;45874;-59
2023/04/16 14:42:40;;;;;;;;;;;16.30;54.60;;;;;;5044860;28;45537;-58
2023/04/16 14:45:07;;;;;;;;;;;16.30;55.20;;;;;;5042966;28;45538;-57
2023/04/16 14:47:33;;;;;;;;;;;16.30;54.60;;;;;;5005759;28;46148;-58
2023/04/16 14:49:59;;;;;;;;;;;16.30;54.50;;;;;;5045755;28;46078;-59
2023/04/16 14:52:24;;;;;;;;;;;16.30;54.50;;;;;;5039752;28;45439;-59
2023/04/16 14:54:51;;;;;;;;;;;16.30;54.50;;;;;;5027830;28;45768;-57
2023/04/16 14:57:16;;;;;;;;;;;16.30;54.40;;;;;;5020101;28;46452;-57
2023/04/16 14:59:42;;;;;;;;;;;16.30;54.40;;;;;;5027370;28;45253;-60
2023/04/16 15:02:08;;;;;;;;;;;16.30;54.40;;;;;;5038558;28;46438;-58
2023/04/16 15:04:34;;;;;;;;;;;16.30;54.30;;;;;;5031173;28;45474;-59
2023/04/16 15:07:00;;;;;;;;;;;16.40;54.40;;;;;;5022741;28;46196;-59
2023/04/16 15:09:26;;;;;;;;;;;16.30;54.30;;;;;;5031969;28;45700;-59
2023/04/16 15:11:52;;;;;;;;;;;16.40;54.30;;;;;;5041137;28;45313;-59
2023/04/16 15:14:17;;;;;;;;;;;16.40;54.30;;;;;;5018948;28;45799;-60
2023/04/16 15:16:43;;;;;;;;;;;16.30;54.20;;;;;;5030402;28;45954;-60
2023/04/16 15:19:12;;;;;;;;;;;16.40;54.30;;;;;;5039588;28;45362;-59
2023/04/16 15:21:37;;;;;;;;;;;16.40;54.20;;;;;;5037386;28;45172;-60
2023/04/16 15:24:03;;;;;;;;;;;16.40;54.20;;;;;;5046586;28;45721;-59
2023/04/16 15:26:28;;;;;;;;;;;16.40;54.20;;;;;;5037760;28;45949;-56
2023/04/16 15:28:54;;;;;;;;;;;16.40;54.20;;;;;;5022776;28;45344;-59
2023/04/16 15:31:19;;;;;;;;;;;16.40;54.20;;;;;;5010795;28;45540;-57
2023/04/16 15:33:46;;;;;;;;;;;16.40;54.20;;;;;;5041066;28;45258;-61
2023/04/16 15:36:11;;;;;;;;;;;16.40;54.10;;;;;;5036993;28;45793;-60
2023/04/16 15:38:37;;;;;;;;;;;16.40;54.80;;;;;;5040669;28;45320;-58
2023/04/16 15:41:03;;;;;;;;;;;16.40;54.10;;;;;;5033719;28;45702;-58
2023/04/16 15:43:28;;;;;;;;;;;16.40;54.10;;;;;;5044081;28;45644;-58
2023/04/16 15:45:55;;;;;;;;;;;16.40;54.10;;;;;;5034619;28;45952;-58
2023/04/16 15:48:20;;;;;;;;;;;16.30;54.10;;;;;;5037865;28;45816;-57
2023/04/16 15:50:46;;;;;;;;;;;16.30;54.00;;;;;;5036646;28;44797;-57
2023/04/16 15:53:11;;;;;;;;;;;16.30;54.10;;;;;;5022579;28;45588;-60
2023/04/16 15:55:37;;;;;;;;;;;16.30;54.10;;;;;;5037725;28;45256;-58
2023/04/16 15:58:02;;;;;;;;;;;16.40;54.10;;;;;;5039597;28;45262;-59
2023/04/16 16:00:28;;;;;;;;;;;16.30;54.10;;;;;;5012250;28;46138;-61
2023/04/16 16:02:53;;;;;;;;;;;16.40;54.60;;;;;;5037330;28;45446;-56
2023/04/16 16:05:19;;;;;;;;;;;16.30;54.00;;;;;;5037596;28;45858;-62
2023/04/16 16:07:45;;;;;;;;;;;16.40;54.10;;;;;;5021613;28;45930;-59
2023/04/16 16:10:11;;;;;;;;;;;16.30;53.90;;;;;;5018642;28;45775;-58
2023/04/16 16:12:37;;;;;;;;;;;16.30;54.00;;;;;;5040690;28;45979;-55